Topock, AZ (86436)

11:54 AM MST on December 22, 2014 (GMT -0700)
Az Route 66, Mile 6 | Change Station
CLOSE
Current Station
Personal Weather Station
Location: Mohave Valley, AZ
Elevation: 679 ft
Nearby Weather Stations

Elev 679 ft 34.79 °N, 114.48 °W | Updated 6 seconds ago

Clear
Clear
59.2 °F
Feels Like 59.2 °F
N
1.3
Wind Variable Wind from WNW
Gusts 2.5 mph

Today
High -- | Low -- °F
--% Chance of Precip.
Yesterday
High -- | Low -- °F
Precip. -- in
7:41 AM 5:31 PM
New Moon, 1% visible
Pressure 30.02 in
Visibility 10.0 miles
Clouds Clear
Dew Point 46 °F
Humidity 62%
Rainfall 0.00 in
Snow Depth Not available.
UV 3 out of 12
Pollen 3.10 out of 12
Air Quality Not available.
Flu Activity Not available.
METAR KEED 221756Z AUTO 05004KT 10SM CLR 16/05 A3006 RMK AO2 SLP165 T01610050 10161 20078 50003

More Conditions Fewer Conditions

Pressure 30.02 in
Visibility 10.0 miles
Clouds Clear
Dew Point 46 °F
Humidity 62%
Rainfall 0.00 in
Snow Depth Not available.
UV 3 out of 12
Pollen 3.10 out of 12
Air Quality Not available.
Flu Activity Not available.
METAR KEED 221756Z AUTO 05004KT 10SM CLR 16/05 A3006 RMK AO2 SLP165 T01610050 10161 20078 50003

More Conditions Fewer Conditions

10-Day Weather Forecast

Almanac

Astronomy

Dec. 22, 2014 Rise Set
Actual Time
Civil Twilight
Nautical Twilight
Astronomical Twilight
Moon
Length of Visible Light
Length of Day
Tomorrow will be .
, % of the Moon is Illuminated

Today's Extremes

State Highs State Lows

Community

WunderPhotos

Upload Photos

1,779,687 photos uploaded!

WunderBlogs® & News

Nearby

Air Quality

  Air Quality AQ Index Pollutant
Not available.

Snow Depth

Station Depth Elevation

Earthquake Activity

City Distance Mag. Time & Date
Minimum magnitude displayed is 2.5.

Coastal Water Temperatures

Place Temperature

Nearby Weather Stations